Time;durP1;ratioP1;P1;durP2;ratioP2;P2;SDS_P1;SDS_P2;PMS_P1;PMS_P2;Temp;Humidity;BMP_temperature;BMP_pressure;BME280_temperature;BME280_humidity;BME280_pressure;Samples;Min_cycle;Max_cycle;Signal;HPM_P1;HPM_P2
2022/11/04 00:03:22;;;;;;;12.50;9.68;;;;;;;8.98;100.00;99893.31;10499750;28;20509;-74
2022/11/04 00:08:24;;;;;;;11.73;9.02;;;;;;;8.91;100.00;99894.56;10499941;28;20062;-72
2022/11/04 00:13:29;;;;;;;14.10;9.60;;;;;;;8.80;100.00;99913.31;10497565;28;20106;-73
2022/11/04 00:18:32;;;;;;;16.98;10.00;;;;;;;8.76;100.00;99908.25;10500534;28;20053;-76
2022/11/04 00:28:53;;;;;;;10.27;7.63;;;;;;;8.58;100.00;99925.63;10499549;28;20052;-72
2022/11/04 00:33:59;;;;;;;11.70;8.35;;;;;;;8.50;100.00;99928.56;10499237;28;20044;-73
2022/11/04 00:39:00;;;;;;;12.25;7.07;;;;;;;8.43;100.00;99916.78;10499165;28;20112;-74
2022/11/04 00:44:05;;;;;;;10.23;7.55;;;;;;;8.32;100.00;99935.47;10496917;28;20052;-73
2022/11/04 00:49:08;;;;;;;8.82;7.68;;;;;;;8.29;100.00;99929.59;10498646;28;20082;-67
2022/11/04 00:54:09;;;;;;;13.00;9.05;;;;;;;8.24;100.00;99946.25;10498235;28;20149;-71
2022/11/04 00:59:11;;;;;;;15.43;8.80;;;;;;;8.18;100.00;99946.53;10498401;28;20052;-73
2022/11/04 01:04:14;;;;;;;13.60;9.18;;;;;;;8.11;100.00;99958.97;10497941;28;20089;-73
2022/11/04 01:09:16;;;;;;;10.32;7.38;;;;;;;8.11;100.00;99964.16;10497644;28;20044;-69
2022/11/04 01:14:19;;;;;;;17.08;9.35;;;;;;;8.03;100.00;99970.63;10495483;28;20064;-73
2022/11/04 01:19:22;;;;;;;14.57;9.20;;;;;;;8.17;100.00;99978.63;10496718;28;20052;-68
2022/11/04 01:24:24;;;;;;;15.20;9.77;;;;;;;8.25;100.00;99973.91;10496939;28;20087;-74
2022/11/04 01:29:26;;;;;;;13.40;8.77;;;;;;;8.35;100.00;99986.50;10497410;28;20114;-69
2022/11/04 01:34:30;;;;;;;16.65;9.23;;;;;;;8.39;100.00;99972.44;10497561;28;20177;-72
2022/11/04 01:39:32;;;;;;;11.38;7.28;;;;;;;8.35;100.00;99976.09;10497067;28;20041;-74
2022/11/04 01:44:53;;;;;;;11.18;6.05;;;;;;;8.19;100.00;99976.81;10494024;28;20061;-73
2022/11/04 01:50:02;;;;;;;11.40;6.55;;;;;;;8.03;100.00;99984.47;10496296;28;20106;-73
2022/11/04 01:55:11;;;;;;;10.93;6.05;;;;;;;7.92;100.00;99977.16;10495837;28;20078;-73
2022/11/04 02:00:14;;;;;;;14.85;5.72;;;;;;;7.81;100.00;99977.66;10496026;28;20058;-71
2022/11/04 02:05:19;;;;;;;12.15;5.82;;;;;;;7.75;100.00;99982.25;10496104;28;20056;-67
2022/11/04 02:10:25;;;;;;;13.63;5.38;;;;;;;7.73;100.00;99982.31;10492946;28;20094;-70
2022/11/04 02:15:42;;;;;;;9.05;4.72;;;;;;;7.67;100.00;99977.41;10495664;28;20044;-72
2022/11/04 02:21:25;;;;;;;10.35;4.53;;;;;;;7.58;100.00;99981.25;10495710;28;20044;-69
2022/11/04 02:27:11;;;;;;;9.20;4.47;;;;;;;7.63;100.00;99989.69;10494823;28;20092;-71
2022/11/04 02:32:27;;;;;;;13.43;4.40;;;;;;;7.56;100.00;99996.09;10496076;28;20202;-72
2022/11/04 02:37:47;;;;;;;6.43;3.97;;;;;;;7.51;100.00;100000.59;10495222;28;20074;-70
2022/11/04 02:42:58;;;;;;;8.32;3.45;;;;;;;7.40;100.00;100004.53;10492999;28;20048;-68
2022/11/04 02:48:09;;;;;;;8.82;2.85;;;;;;;7.34;100.00;100004.78;10494572;28;20455;-70
2022/11/04 02:53:21;;;;;;;7.18;3.30;;;;;;;7.26;100.00;99996.47;10494441;28;20055;-72
2022/11/04 02:58:34;;;;;;;14.73;3.67;;;;;;;7.19;100.00;100001.91;10494592;28;20049;-73
2022/11/04 03:03:44;;;;;;;6.68;3.10;;;;;;;7.08;100.00;99996.31;10494606;28;20446;-70
2022/11/04 03:08:51;;;;;;;10.93;2.97;;;;;;;7.05;100.00;99994.69;10494448;28;20101;-72
2022/11/04 03:13:59;;;;;;;8.50;2.90;;;;;;;6.99;100.00;99994.97;10491573;28;20052;-69
2022/11/04 03:19:13;;;;;;;5.72;3.00;;;;;;;6.99;100.00;100000.16;10494022;28;20063;-71
2022/11/04 03:24:15;;;;;;;10.80;2.83;;;;;;;6.94;100.00;99999.47;10493772;28;20416;-69
2022/11/04 03:29:27;;;;;;;5.90;2.63;;;;;;;6.90;100.00;100001.38;10493704;28;20060;-70
2022/11/04 03:34:31;;;;;;;5.43;2.40;;;;;;;6.93;100.00;100014.22;10493490;28;20496;-70
2022/11/04 03:39:34;;;;;;;7.38;2.95;;;;;;;6.86;100.00;100007.59;10495402;28;20492;-71
2022/11/04 03:44:35;;;;;;;6.53;3.55;;;;;;;6.76;100.00;100008.84;10498680;28;20071;-70
2022/11/04 03:49:39;;;;;;;13.75;4.85;;;;;;;6.67;100.00;100005.72;10500589;28;20458;-71
2022/11/04 03:54:42;;;;;;;11.32;4.45;;;;;;;6.67;100.00;100010.09;10500113;28;20467;-71
2022/11/04 04:00:16;;;;;;;14.23;5.53;;;;;;;6.60;100.00;100003.44;10500560;28;20095;-71
2022/11/04 04:05:26;;;;;;;13.18;5.32;;;;;;;6.55;100.00;100004.47;10424145;28;20458;-71
2022/11/04 04:10:39;;;;;;;17.05;5.88;;;;;;;6.48;100.00;100002.16;10498127;28;20094;-71
2022/11/04 04:15:48;;;;;;;19.13;5.95;;;;;;;6.40;100.00;100005.88;10499723;28;20056;-73
2022/11/04 04:20:56;;;;;;;12.15;5.20;;;;;;;6.44;100.00;100025.59;10500332;28;20049;-72
2022/11/04 04:36:58;;;;;;;10.55;5.35;;;;;;;6.10;100.00;100045.03;10499024;28;20071;-70
2022/11/04 04:47:24;;;;;;;11.55;5.35;;;;;;;5.79;100.00;100033.16;10498826;28;19922;-70
2022/11/04 04:52:32;;;;;;;15.68;5.55;;;;;;;5.54;100.00;100041.75;10498680;28;20063;-70
2022/11/04 04:57:33;;;;;;;9.35;5.13;;;;;;;5.55;100.00;100051.22;10499017;28;20053;-70
2022/11/04 05:02:35;;;;;;;10.90;5.05;;;;;;;5.45;100.00;100055.88;10498092;28;20044;-70
2022/11/04 05:07:38;;;;;;;14.02;5.68;;;;;;;5.39;100.00;100059.50;10497875;28;20044;-70
2022/11/04 05:18:02;;;;;;;10.68;5.22;;;;;;;5.26;100.00;100060.78;10497759;28;20511;-70
2022/11/04 05:23:05;;;;;;;13.40;5.32;;;;;;;5.36;100.00;100067.38;10497550;28;20052;-70
2022/11/04 05:28:08;;;;;;;12.95;4.68;;;;;;;5.65;100.00;100073.28;10496731;28;20052;-70
2022/11/04 05:33:10;;;;;;;12.43;4.93;;;;;;;5.81;100.00;100083.13;10497286;28;20101;-71
2022/11/04 05:38:14;;;;;;;9.43;4.47;;;;;;;5.85;100.00;100078.69;10496479;28;20114;-71
2022/11/04 05:43:16;;;;;;;15.25;4.75;;;;;;;5.81;100.00;100083.13;10495022;28;20294;-71
2022/11/04 05:48:17;;;;;;;14.03;5.13;;;;;;;5.82;100.00;100084.84;10496119;28;20405;-71
2022/11/04 05:53:21;;;;;;;10.73;4.45;;;;;;;5.83;100.00;100096.00;10495779;28;20713;-70
2022/11/04 05:58:22;;;;;;;15.90;4.65;;;;;;;5.66;100.00;100095.72;10515217;28;20454;-70
2022/11/04 06:03:24;;;;;;;16.52;5.10;;;;;;;5.45;100.00;100106.78;10537238;28;20262;-69
2022/11/04 06:08:27;;;;;;;10.93;4.35;;;;;;;5.27;100.00;100109.91;10537340;28;20097;-69
2022/11/04 06:13:29;;;;;;;13.07;4.38;;;;;;;5.18;100.00;100117.09;10534554;28;20074;-69
2022/11/04 06:18:30;;;;;;;14.48;4.40;;;;;;;5.15;100.00;100116.31;10535257;28;20569;-69
2022/11/04 06:23:33;;;;;;;14.20;5.27;;;;;;;5.26;100.00;100118.56;10535799;28;20051;-69
2022/11/04 06:28:35;;;;;;;14.95;4.55;;;;;;;5.21;100.00;100120.47;10535258;28;20336;-69
2022/11/04 06:33:37;;;;;;;10.77;4.55;;;;;;;5.21;100.00;100124.78;10535348;28;20393;-70
2022/11/04 06:38:41;;;;;;;14.48;4.65;;;;;;;5.15;100.00;100137.03;10535251;28;20048;-69
2022/11/04 06:43:43;;;;;;;11.52;4.70;;;;;;;5.12;100.00;100142.28;10533324;28;20119;-69
2022/11/04 06:48:45;;;;;;;13.93;4.63;;;;;;;5.15;100.00;100146.50;10535229;28;20134;-68
2022/11/04 06:53:48;;;;;;;10.87;4.87;;;;;;;5.22;100.00;100152.34;10535072;28;20048;-70
2022/11/04 06:58:53;;;;;;;11.65;4.50;;;;;;;5.24;100.00;100155.72;10535614;28;20541;-68
2022/11/04 07:03:58;;;;;;;10.32;5.13;;;;;;;5.41;100.00;100166.38;10535192;28;20085;-69
2022/11/04 07:09:03;;;;;;;17.33;4.93;;;;;;;5.67;100.00;100167.28;10534543;28;20117;-69
2022/11/04 07:14:05;;;;;;;14.93;5.47;;;;;;;5.83;100.00;100174.56;10533820;28;20415;-69
2022/11/04 07:19:07;;;;;;;11.98;5.43;;;;;;;6.02;100.00;100176.53;10542770;28;20128;-68
2022/11/04 07:24:10;;;;;;;17.52;5.45;;;;;;;6.24;100.00;100181.84;10542727;28;20073;-69
2022/11/04 07:29:12;;;;;;;14.77;5.85;;;;;;;6.46;100.00;100182.84;10542070;28;20097;-68
2022/11/04 07:34:13;;;;;;;21.13;5.75;;;;;;;6.57;100.00;100184.13;10543360;28;20492;-68
2022/11/04 07:39:17;;;;;;;17.27;5.30;;;;;;;6.78;100.00;100193.78;10543126;28;20044;-68
2022/11/04 07:44:21;;;;;;;15.23;5.45;;;;;;;6.86;100.00;100202.13;10540683;28;20101;-68
2022/11/04 07:49:24;;;;;;;12.32;5.63;;;;;;;7.00;100.00;100209.38;10542521;28;20054;-68
2022/11/04 07:54:27;;;;;;;18.50;5.53;;;;;;;7.13;100.00;100214.97;10542517;28;20548;-68
2022/11/04 07:59:29;;;;;;;17.98;5.78;;;;;;;7.18;100.00;100222.56;10517503;28;20049;-69
2022/11/04 08:04:31;;;;;;;10.15;5.65;;;;;;;7.31;100.00;100220.34;10521879;28;20097;-67
2022/11/04 08:09:35;;;;;;;13.65;6.15;;;;;;;7.64;100.00;100213.88;10541010;28;20040;-69
2022/11/04 08:14:37;;;;;;;18.42;6.78;;;;;;;8.64;100.00;100226.19;10539279;28;20047;-68
2022/11/04 08:19:38;;;;;;;22.30;8.20;;;;;;;10.49;100.00;100229.63;10541661;28;20055;-68
2022/11/04 08:24:41;;;;;;;25.17;7.90;;;;;;;11.63;100.00;100231.38;10540397;28;20102;-70
2022/11/04 08:29:43;;;;;;;18.58;6.00;;;;;;;10.47;100.00;100238.47;10540942;28;20052;-70
2022/11/04 08:34:45;;;;;;;19.23;5.88;;;;;;;9.30;100.00;100254.53;10540694;28;20116;-71
2022/11/04 08:39:48;;;;;;;14.45;5.13;;;;;;;8.81;100.00;100261.88;10541320;28;20054;-71
2022/11/04 08:44:51;;;;;;;12.00;6.18;;;;;;;8.67;100.00;100257.28;10539659;28;20191;-71
2022/11/04 08:49:52;;;;;;;12.25;5.75;;;;;;;8.59;100.00;100260.22;10540098;28;20135;-69
2022/11/04 08:54:56;;;;;;;14.95;6.00;;;;;;;9.20;100.00;100270.53;10504462;28;20048;-70
2022/11/04 08:59:58;;;;;;;15.32;6.60;;;;;;;9.23;100.00;100275.63;10498689;28;20048;-70
2022/11/04 09:04:59;;;;;;;17.10;5.80;;;;;;;9.07;100.00;100285.06;10498203;28;20076;-71
2022/11/04 09:10:02;;;;;;;10.32;5.03;;;;;;;8.95;100.00;100286.44;10495942;28;20059;-71
2022/11/04 09:15:05;;;;;;;16.83;6.32;;;;;;;9.34;100.00;100295.13;10531615;28;20080;-68
2022/11/04 09:20:08;;;;;;;14.57;5.38;;;;;;;9.53;100.00;100297.72;10538901;28;20109;-67
2022/11/04 09:25:11;;;;;;;14.80;5.38;;;;;;;10.03;100.00;100306.63;10538499;28;20137;-68
2022/11/04 09:30:14;;;;;;;14.35;5.20;;;;;;;10.25;100.00;100316.00;10538889;28;20511;-66
2022/11/04 09:35:16;;;;;;;13.30;4.80;;;;;;;10.29;100.00;100322.75;10538178;28;20044;-67
2022/11/04 09:40:22;;;;;;;;;;;;;;;10.21;100.00;100339.69;10535670;28;20059;-68
2022/11/04 09:45:29;;;;;;;11.95;4.03;;;;;;;10.25;100.00;100336.88;10538029;28;19958;-65
2022/11/04 09:50:44;;;;;;;16.90;4.53;;;;;;;10.31;100.00;100349.59;10538389;28;20055;-65
2022/11/04 09:55:55;;;;;;;9.90;4.00;;;;;;;10.55;100.00;100353.72;10495510;28;20484;-65
2022/11/04 10:01:05;;;;;;;10.75;4.85;;;;;;;10.71;100.00;100348.53;10498169;28;20044;-66
2022/11/04 10:06:29;;;;;;;9.55;4.47;;;;;;;11.03;100.00;100353.91;10537018;28;20050;-66
2022/11/04 10:11:45;;;;;;;10.80;4.13;;;;;;;10.69;100.00;100355.63;10535039;28;20044;-66
2022/11/04 10:17:11;;;;;;;8.88;4.20;;;;;;;11.64;100.00;100362.91;10537103;28;20044;-65
2022/11/04 10:22:27;;;;;;;10.15;4.60;;;;;;;12.03;100.00;100359.00;10537280;28;20097;-66
2022/11/04 10:27:36;;;;;;;17.33;4.55;;;;;;;11.64;100.00;100363.75;10536620;28;20052;-65
2022/11/04 10:32:49;;;;;;;13.48;4.60;;;;;;;11.27;100.00;100374.41;10536890;28;20048;-64
2022/11/04 10:37:54;;;;;;;13.52;5.45;;;;;;;10.80;100.00;100392.47;10536213;28;20197;-65
2022/11/04 10:43:10;;;;;;;12.10;5.30;;;;;;;10.64;100.00;100394.16;10534237;28;20075;-64
2022/11/04 10:48:25;;;;;;;10.27;5.80;;;;;;;10.16;100.00;100407.72;10538494;28;20044;-64
2022/11/04 10:53:31;;;;;;;11.13;6.07;;;;;;;10.27;100.00;100421.06;10545390;28;20475;-64
2022/11/04 10:58:41;;;;;;;19.70;6.50;;;;;;;10.72;100.00;100410.28;10545233;28;20467;-65
2022/11/04 11:03:42;;;;;;;13.80;6.80;;;;;;;11.63;100.00;100398.66;10545448;28;20064;-64
2022/11/04 11:08:44;;;;;;;17.98;7.82;;;;;;;10.92;100.00;100395.38;10544464;28;20419;-66
2022/11/04 11:13:47;;;;;;;13.60;7.57;;;;;;;11.74;100.00;100395.47;10528525;28;20505;-65
2022/11/04 11:19:16;;;;;;;13.43;7.28;;;;;;;10.84;100.00;100405.38;10529406;28;20557;-64
2022/11/04 11:24:24;;;;;;;11.90;6.88;;;;;;;11.32;100.00;100419.41;10543785;28;20048;-64
2022/11/04 11:29:38;;;;;;;14.38;7.63;;;;;;;11.90;100.00;100418.97;10511552;28;20139;-63
2022/11/04 11:34:45;;;;;;;14.38;6.53;;;;;;;12.19;100.00;100420.94;10543606;28;20062;-63
2022/11/04 11:39:47;;;;;;;14.43;6.00;;;;;;;12.68;96.80;100403.34;10543682;28;20044;-64
2022/11/04 11:44:54;;;;;;;12.10;5.93;;;;;;;12.11;100.00;100413.53;10540217;28;20113;-64
2022/11/04 11:50:18;;;;;;;12.27;6.20;;;;;;;11.74;100.00;100416.38;10542779;28;20090;-64
2022/11/04 11:55:27;;;;;;;11.50;5.82;;;;;;;11.13;100.00;100416.06;10542847;28;20048;-64
2022/11/04 12:00:37;;;;;;;13.82;6.82;;;;;;;11.25;100.00;100425.06;10541585;28;20040;-64
2022/11/04 12:05:52;;;;;;;16.98;6.38;;;;;;;11.69;98.70;100431.44;10542627;28;20044;-65
2022/11/04 12:11:06;;;;;;;11.77;5.40;;;;;;;12.62;95.88;100435.97;10503311;28;20049;-64
2022/11/04 12:16:28;;;;;;;13.57;6.35;;;;;;;13.66;89.43;100450.00;10508835;28;20044;-64
2022/11/04 12:21:35;;;;;;;14.02;6.85;;;;;;;13.39;93.52;100442.84;10541488;28;20048;-64
2022/11/04 12:26:46;;;;;;;20.80;7.40;;;;;;;13.51;97.13;100451.75;10541033;28;20105;-63
2022/11/04 12:32:02;;;;;;;14.23;7.20;;;;;;;12.74;97.19;100455.38;10541530;28;20090;-65
2022/11/04 12:37:25;;;;;;;9.20;6.28;;;;;;;12.85;97.23;100468.69;10540536;28;20078;-64
2022/11/04 12:42:41;;;;;;;11.20;5.40;;;;;;;13.69;94.52;100480.44;10538778;28;20302;-65
2022/11/04 12:47:47;;;;;;;12.00;5.72;;;;;;;12.21;95.12;100481.88;10540188;28;20044;-65
2022/11/04 12:53:20;;;;;;;10.13;5.97;;;;;;;12.75;95.34;100488.47;10540307;28;20073;-64
2022/11/04 12:58:44;;;;;;;6.70;4.82;;;;;;;12.27;92.85;100486.78;10540155;28;20107;-67
2022/11/04 13:03:55;;;;;;;8.85;5.55;;;;;;;13.05;92.15;100495.50;10540195;28;20529;-65
2022/11/04 13:09:05;;;;;;;11.52;5.95;;;;;;;13.86;91.25;100498.56;10519728;28;20109;-65
2022/11/04 13:14:17;;;;;;;14.48;6.88;;;;;;;13.89;91.86;100497.56;10494807;28;20053;-65
2022/11/04 13:19:30;;;;;;;11.57;6.68;;;;;;;12.26;100.00;100510.41;10532906;28;20415;-65
2022/11/04 13:24:37;;;;;;;12.60;8.52;;;;;;;11.88;100.00;100511.50;10539664;28;20113;-65
2022/11/04 13:29:41;;;;;;;13.70;8.43;;;;;;;11.84;100.00;100516.91;10533183;28;20044;-65
2022/11/04 13:34:59;;;;;;;14.38;8.27;;;;;;;11.64;100.00;100545.88;10530883;28;20136;-66
2022/11/04 13:40:12;;;;;;;15.55;8.52;;;;;;;12.05;100.00;100553.28;10523002;28;20066;-66
2022/11/04 13:45:18;;;;;;;13.18;8.57;;;;;;;11.30;100.00;100559.72;10509088;28;20059;-65
2022/11/04 13:50:39;;;;;;;12.85;7.35;;;;;;;11.48;100.00;100558.84;10516761;28;20067;-66
2022/11/04 13:55:49;;;;;;;11.93;7.97;;;;;;;11.33;100.00;100571.78;10507362;28;20052;-65
2022/11/04 14:01:13;;;;;;;12.85;7.47;;;;;;;11.39;100.00;100575.88;10499965;28;20053;-66
2022/11/04 14:06:16;;;;;;;10.82;7.32;;;;;;;11.42;100.00;100588.75;10510928;28;20480;-65
2022/11/04 14:11:19;;;;;;;10.85;8.10;;;;;;;11.15;100.00;100586.63;10494130;28;20071;-68
2022/11/04 14:16:44;;;;;;;16.70;8.85;;;;;;;11.24;100.00;100586.16;10496910;28;20052;-65
2022/11/04 14:22:15;;;;;;;11.63;9.48;;;;;;;11.26;100.00;100594.75;10496499;28;20045;-64
2022/11/04 14:27:37;;;;;;;15.95;9.52;;;;;;;11.30;100.00;100605.91;10495092;28;20087;-66
2022/11/04 14:32:41;;;;;;;13.77;8.93;;;;;;;10.98;100.00;100609.16;10495255;28;20059;-66
2022/11/04 14:37:51;;;;;;;14.68;9.32;;;;;;;10.98;100.00;100624.81;10530716;28;20105;-66
2022/11/04 14:42:56;;;;;;;8.80;6.97;;;;;;;10.86;100.00;100631.47;10532844;28;20450;-67
2022/11/04 14:48:18;;;;;;;12.70;7.53;;;;;;;10.86;100.00;100630.63;10536316;28;20052;-67
2022/11/04 14:53:28;;;;;;;7.93;6.38;;;;;;;10.93;100.00;100645.09;10536813;28;20060;-69
2022/11/04 14:58:29;;;;;;;11.65;7.05;;;;;;;10.91;100.00;100652.13;10536026;28;20098;-68
2022/11/04 15:03:37;;;;;;;9.10;7.70;;;;;;;10.92;100.00;100664.28;10536763;28;20103;-69
2022/11/04 15:08:45;;;;;;;15.80;7.53;;;;;;;10.73;100.00;100675.56;10528035;28;20070;-68
2022/11/04 15:13:50;;;;;;;9.88;7.30;;;;;;;10.68;100.00;100682.78;10533699;28;20058;-69
2022/11/04 15:18:54;;;;;;;12.93;7.03;;;;;;;10.64;100.00;100692.47;10534915;28;20082;-73
2022/11/04 15:23:57;;;;;;;9.25;5.78;;;;;;;10.59;100.00;100701.44;10533168;28;20049;-73
2022/11/04 15:29:07;;;;;;;7.47;4.25;;;;;;;10.58;100.00;100707.56;10493668;28;20053;-72
2022/11/04 15:34:12;;;;;;;8.32;3.85;;;;;;;10.47;100.00;100711.50;10493543;28;20076;-73
2022/11/04 15:39:21;;;;;;;4.80;2.67;;;;;;;10.31;100.00;100722.56;10529631;28;20057;-72
2022/11/04 15:44:26;;;;;;;5.70;2.20;;;;;;;10.15;100.00;100721.53;10540486;28;20392;-71
2022/11/04 15:49:30;;;;;;;2.83;2.03;;;;;;;9.97;100.00;100724.03;10542930;28;20090;-72
2022/11/04 15:54:37;;;;;;;1.60;1.50;;;;;;;9.76;100.00;100720.56;10542456;28;20655;-72
2022/11/04 15:59:46;;;;;;;4.10;1.55;;;;;;;9.68;100.00;100723.44;10542255;28;20082;-70
2022/11/04 16:05:04;;;;;;;3.47;1.40;;;;;;;9.50;100.00;100736.31;10542611;28;20044;-70
2022/11/04 16:10:28;;;;;;;1.88;1.45;;;;;;;9.43;100.00;100739.22;10532658;28;20058;-71
2022/11/04 16:15:35;;;;;;;3.55;1.40;;;;;;;9.28;100.00;100752.78;10542053;28;20056;-71
2022/11/04 16:20:36;;;;;;;5.10;1.60;;;;;;;9.27;100.00;100751.09;10541348;28;20403;-70
2022/11/04 16:25:39;;;;;;;3.13;1.98;;;;;;;9.31;100.00;100770.03;10541094;28;20132;-71
2022/11/04 16:30:56;;;;;;;2.05;1.48;;;;;;;9.25;100.00;100772.88;10541941;28;20056;-71
2022/11/04 16:35:58;;;;;;;3.00;2.00;;;;;;;9.21;100.00;100786.94;10536069;28;20119;-71
2022/11/04 16:41:03;;;;;;;3.45;2.03;;;;;;;9.19;100.00;100799.16;10537976;28;20435;-72
2022/11/04 16:46:05;;;;;;;3.53;2.42;;;;;;;9.12;100.00;100815.00;10538820;28;20040;-71
2022/11/04 16:51:06;;;;;;;;;;;;;;;9.06;100.00;100809.19;10539512;28;20465;-70
2022/11/04 16:56:10;;;;;;;7.78;2.72;;;;;;;9.02;100.00;100811.03;10538946;28;20014;-71
2022/11/04 17:01:14;;;;;;;4.45;2.58;;;;;;;9.00;100.00;100824.09;10538741;28;20056;-72
2022/11/04 17:06:17;;;;;;;4.38;2.60;;;;;;;8.91;100.00;100827.06;10538478;28;20088;-70
2022/11/04 17:11:20;;;;;;;3.70;2.53;;;;;;;8.95;100.00;100838.19;10536023;28;20054;-71
2022/11/04 17:16:22;;;;;;;6.18;2.95;;;;;;;8.92;100.00;100849.56;10538005;28;20078;-72
2022/11/04 17:21:25;;;;;;;;;;;;;;;8.87;100.00;100860.13;10539215;28;20078;-71
2022/11/04 17:26:27;;;;;;;;;;;;;;;8.89;100.00;100865.28;10538711;28;19965;-71
2022/11/04 17:31:29;;;;;;;5.70;3.25;;;;;;;8.93;100.00;100869.47;10538037;28;19920;-71
2022/11/04 17:36:31;;;;;;;4.82;3.08;;;;;;;8.86;100.00;100875.81;10537379;28;20052;-71
2022/11/04 17:46:53;;;;;;;4.68;2.58;;;;;;;8.83;100.00;100881.13;10536931;28;20036;-71
2022/11/04 17:51:59;;;;;;;4.57;2.83;;;;;;;8.83;100.00;100875.91;10537643;28;20048;-71
2022/11/04 17:57:03;;;;;;;4.15;3.20;;;;;;;8.74;100.00;100896.16;10513637;28;20093;-72
2022/11/04 18:02:04;;;;;;;2.80;2.53;;;;;;;8.69;100.00;100895.44;10534529;28;20495;-72
2022/11/04 18:07:06;;;;;;;6.97;2.88;;;;;;;8.56;100.00;100899.38;10536650;28;20058;-71
2022/11/04 18:17:29;;;;;;;4.57;3.25;;;;;;;8.19;100.00;100910.03;10537147;28;20070;-71
2022/11/04 18:22:32;;;;;;;6.45;3.20;;;;;;;8.12;100.00;100916.31;10537672;28;20054;-72
2022/11/04 18:27:35;;;;;;;6.15;3.30;;;;;;;7.97;100.00;100921.06;10536776;28;20056;-71
2022/11/04 18:32:36;;;;;;;8.40;3.60;;;;;;;8.03;100.00;100924.38;10536816;28;20044;-72
2022/11/04 18:37:38;;;;;;;5.45;4.43;;;;;;;8.04;100.00;100929.53;10536571;28;20461;-71
2022/11/04 18:42:41;;;;;;;7.75;4.53;;;;;;;7.96;100.00;100932.38;10534500;28;20047;-72
2022/11/04 18:47:47;;;;;;;7.30;4.72;;;;;;;7.93;100.00;100937.66;10536843;28;20051;-71
2022/11/04 18:52:52;;;;;;;10.52;5.88;;;;;;;7.92;100.00;100943.75;10536587;28;20062;-72
2022/11/04 18:57:56;;;;;;;9.00;6.00;;;;;;;7.89;100.00;100943.84;10536121;28;20454;-71
2022/11/04 19:02:57;;;;;;;11.70;6.35;;;;;;;7.84;100.00;100956.13;10536882;28;20048;-72
2022/11/04 19:07:59;;;;;;;12.85;6.35;;;;;;;7.71;100.00;100958.22;10535981;28;20040;-71
2022/11/04 19:13:17;;;;;;;10.07;6.22;;;;;;;7.67;100.00;100967.84;10540519;28;20056;-71
2022/11/04 19:18:19;;;;;;;13.13;6.55;;;;;;;7.63;100.00;100963.63;10543047;28;20109;-71
2022/11/04 19:23:21;;;;;;;8.85;6.68;;;;;;;7.43;100.00;100972.81;10542612;28;20090;-71
2022/11/04 19:28:24;;;;;;;9.25;6.10;;;;;;;7.46;100.00;100977.94;10542562;28;20280;-73
2022/11/04 19:33:26;;;;;;;11.55;6.10;;;;;;;7.37;100.00;100990.31;10541769;28;20108;-71
2022/11/04 19:38:28;;;;;;;11.48;6.10;;;;;;;7.13;100.00;100993.50;10542279;28;20074;-71
2022/11/04 19:43:31;;;;;;;9.02;6.60;;;;;;;7.05;100.00;100992.88;10539803;28;20051;-71
2022/11/04 19:48:33;;;;;;;9.30;6.40;;;;;;;7.04;100.00;100998.91;10542229;28;20055;-71
2022/11/04 19:53:34;;;;;;;9.57;6.13;;;;;;;6.87;100.00;101007.97;10541581;28;20058;-70
2022/11/04 19:58:38;;;;;;;11.73;6.80;;;;;;;6.78;100.00;101016.81;10541660;28;20078;-72
2022/11/04 20:03:41;;;;;;;10.02;6.65;;;;;;;6.90;100.00;101023.47;10541015;28;20052;-72
2022/11/04 20:08:45;;;;;;;7.35;5.88;;;;;;;6.81;100.00;101031.50;10540803;28;20056;-71
2022/11/04 20:13:51;;;;;;;13.15;7.10;;;;;;;6.75;100.00;101044.59;10538066;28;20070;-73
2022/11/04 20:18:56;;;;;;;11.32;7.05;;;;;;;6.63;100.00;101049.16;10540340;28;20052;-71
2022/11/04 20:24:00;;;;;;;9.23;6.40;;;;;;;6.54;100.00;101054.56;10539932;28;20048;-71
2022/11/04 20:29:06;;;;;;;11.52;6.53;;;;;;;6.41;100.00;101048.78;10540342;28;20052;-71
2022/11/04 20:34:11;;;;;;;8.65;5.60;;;;;;;6.27;100.00;101054.28;10540044;28;20162;-71
2022/11/04 20:39:16;;;;;;;12.80;6.22;;;;;;;6.15;100.00;101066.59;10539520;28;20104;-71
2022/11/04 20:44:19;;;;;;;9.23;6.60;;;;;;;5.98;100.00;101079.00;10537693;28;20052;-71
2022/11/04 20:49:21;;;;;;;12.05;5.85;;;;;;;5.92;100.00;101080.81;10539839;28;20113;-71
2022/11/04 20:54:22;;;;;;;18.35;9.32;;;;;;;5.89;100.00;101095.59;10538816;28;20392;-72
2022/11/04 20:59:27;;;;;;;10.88;7.45;;;;;;;5.82;100.00;101104.34;10538948;28;20654;-71
2022/11/04 21:04:29;;;;;;;12.38;6.40;;;;;;;5.71;100.00;101107.13;10539231;28;20113;-72
2022/11/04 21:09:31;;;;;;;10.10;6.10;;;;;;;5.68;100.00;101113.19;10538971;28;20105;-71
2022/11/04 21:14:34;;;;;;;10.88;6.22;;;;;;;5.69;100.00;101119.25;10536232;28;20658;-71
2022/11/04 21:19:36;;;;;;;9.00;5.68;;;;;;;5.67;100.00;101122.72;10540162;28;20044;-72
2022/11/04 21:24:38;;;;;;;7.97;5.80;;;;;;;5.63;100.00;101125.38;10538393;28;20059;-71
2022/11/04 21:29:42;;;;;;;14.50;5.80;;;;;;;5.62;100.00;101142.66;10523051;28;20050;-71
2022/11/04 21:34:44;;;;;;;12.85;6.82;;;;;;;5.61;100.00;101140.94;10517065;28;20113;-71
2022/11/04 21:39:46;;;;;;;10.70;7.18;;;;;;;5.61;100.00;101143.53;10506655;28;20511;-71
2022/11/04 21:44:49;;;;;;;12.20;7.40;;;;;;;5.78;100.00;101161.38;10494169;28;20052;-72
2022/11/04 21:49:50;;;;;;;12.10;7.30;;;;;;;6.19;100.00;101171.03;10496266;28;20052;-70
2022/11/04 21:54:52;;;;;;;14.90;6.97;;;;;;;6.22;100.00;101170.16;10496532;28;20063;-72
2022/11/04 21:59:55;;;;;;;9.65;6.80;;;;;;;6.44;100.00;101175.78;10496433;28;20045;-72
2022/11/04 22:04:57;;;;;;;8.88;5.95;;;;;;;6.66;100.00;101181.38;10496221;28;20075;-74
2022/11/04 22:09:58;;;;;;;11.68;5.72;;;;;;;6.76;100.00;101184.63;10496028;28;20113;-71
2022/11/04 22:15:01;;;;;;;6.43;5.28;;;;;;;6.87;100.00;101184.41;10493048;28;20068;-72
2022/11/04 22:20:05;;;;;;;11.20;4.80;;;;;;;6.86;100.00;101190.50;10495110;28;20617;-71
2022/11/04 22:25:09;;;;;;;8.45;4.72;;;;;;;6.82;100.00;101194.03;10495281;28;20075;-72
2022/11/04 22:30:14;;;;;;;4.90;4.43;;;;;;;6.96;100.00;101198.94;10495247;28;20124;-72
2022/11/04 22:35:16;;;;;;;5.60;4.63;;;;;;;6.90;100.00;101202.50;10495033;28;20063;-71
2022/11/04 22:40:17;;;;;;;4.93;4.47;;;;;;;6.97;100.00;101217.97;10493048;28;20097;-70
2022/11/04 22:45:20;;;;;;;6.63;4.10;;;;;;;6.99;100.00;101221.34;10494476;28;20054;-69
2022/11/04 22:50:22;;;;;;;7.80;4.63;;;;;;;6.94;100.00;101211.06;10494722;28;20049;-70
2022/11/04 22:55:24;;;;;;;6.53;4.50;;;;;;;6.88;100.00;101204.25;10494734;28;20049;-69
2022/11/04 23:00:27;;;;;;;8.18;4.75;;;;;;;6.82;100.00;101204.41;10494523;28;20403;-69
2022/11/04 23:05:31;;;;;;;6.00;3.97;;;;;;;6.78;100.00;101202.75;10494450;28;20505;-70
2022/11/04 23:26:36;;;;;;;9.55;4.80;;;;;;;6.34;100.00;101223.50;10509685;28;20507;-69
2022/11/04 23:31:39;;;;;;;9.45;4.95;;;;;;;6.36;100.00;101219.16;10495687;28;20048;-69
2022/11/04 23:42:18;;;;;;;9.23;4.07;;;;;;;6.36;100.00;101232.94;10413395;28;20086;-70
